hwlogo.jpg (8581 bytes)
Home Your Weather Products Services Weather On Your Site Contact
HW Version Logo
Weather Info
Your Weather (Options)
Canadian Weather
International Weather
Enter your " Place, State", US Zip Code or ICAO:  
Forecast Information Radar Information
Clyde, Canada  Lat: 70.48N, Lon: 68.52W
ICAO Used: CYCY
Current Conditions
Updated: 10:00 PM GMT-7 SUN FEB 18 2018
Sun & Moon Information
Clear
Clear
Temp: -32°C
Humidity: 67%
Wind Speed: W 7 MPH
Barometer: 1014 mb
Dewpoint: -36°C
Heat Index: -32°C
Wind Chill: -42°C
Civil Twilight: 4:51 AM GMT-7 Moon Phase:
Waxing Crescent Moon
Sunrise: 6:00 AM GMT-7
Sunset: 1:36 PM GMT-7
Civil Twilight: 2:45 PM GMT-7
Forecast for Clyde, NT, Canada:
(Forecast based on TAF for )
0642 PM GMT-7 SUN FEB 18 2018
  
OVERNIGHT MORNING
Clear Clear
ZoneCast:
Dated: 0642 PM GMT-7 SUN FEB 18 2018
Overnight...Clear with winds from the westnorthwest at 6 mph.

Morning...Clear with winds from the westnorthwest at 6 mph.

Original Encoded TAF:
Dated: 0642 PM GMT-7 SUN FEB 18 2018
2018/02/19 01:42
TAF CYCY 190038Z 1901/1913 29005KT P6SM SKC 
      RMK FCST BASED ON AUTO OBS. NXT FCST BY 190700Z